Terminal Aerodrome Forecast
Issued by NWS Duluth, MN

Home | Current Version | Previous Version | Text Only | Print | Product List | Glossary On
Versions: 1 2 3 4 5 6 7 8 9 10 11 12 13 14 15 16 17 18 19 20 21 22 23 24 25 26 27 28 29
000
FTUS43 KDLH 291100
TAFINL
TAF
KINL 291136Z 2912/3012 06008KT P6SM OVC011
      TEMPO 2913/2915 5SM BR BKN008 OVC013
     FM291700 06008KT P6SM BKN025
     FM292100 07007KT P6SM SCT035
     FM300100 VRB03KT P6SM FEW040=

USA.gov is the U.S. government's official web portal to all federal, state and local government web resources and services.